createdAt,value
2022-12-31T00:00:30.279Z,99417.19
2022-12-31T00:05:32.052Z,99420.53
2022-12-31T00:10:39.742Z,99429.53
2022-12-31T00:15:41.362Z,99448.09
2022-12-31T00:20:42.757Z,99454.31
2022-12-31T00:25:44.124Z,99458.38
2022-12-31T00:30:45.514Z,99469.91
2022-12-31T00:35:46.940Z,99482.50
2022-12-31T00:40:48.323Z,99475.41
2022-12-31T00:45:49.765Z,99481.94
2022-12-31T00:50:51.455Z,99486.84
2022-12-31T00:55:52.854Z,99497.94
2022-12-31T01:00:54.254Z,99496.88
2022-12-31T01:05:58.672Z,99513.88
2022-12-31T01:11:19.190Z,99497.81
2022-12-31T01:16:22.691Z,99518.28
2022-12-31T01:21:24.080Z,99520.97
2022-12-31T01:26:25.502Z,99516.00
2022-12-31T01:31:26.925Z,99537.34
2022-12-31T01:36:29.488Z,99534.41
2022-12-31T01:41:34.301Z,99544.25
2022-12-31T01:46:43.988Z,99546.66
2022-12-31T01:51:46.768Z,99559.50
2022-12-31T01:56:48.179Z,99567.06
2022-12-31T02:01:55.394Z,99572.25
2022-12-31T02:07:01.359Z,99558.69
2022-12-31T02:12:02.720Z,99557.59
2022-12-31T02:17:22.826Z,99564.16
2022-12-31T02:22:58.299Z,99562.75
2022-12-31T02:28:11.954Z,99562.09
2022-12-31T02:33:25.776Z,99566.00
2022-12-31T02:38:31.130Z,99550.50
2022-12-31T02:43:32.546Z,99542.59
2022-12-31T02:48:57.696Z,99536.91
2022-12-31T02:54:24.646Z,99542.28
2022-12-31T02:59:50.203Z,99514.34
2022-12-31T03:04:52.393Z,99512.69
2022-12-31T03:09:53.820Z,99521.28
2022-12-31T03:14:55.231Z,99527.88
2022-12-31T03:20:15.145Z,99535.22
2022-12-31T03:25:35.887Z,99531.94
2022-12-31T03:30:38.404Z,99529.72
2022-12-31T03:35:40.606Z,99536.25
2022-12-31T03:40:43.743Z,99532.44
2022-12-31T03:45:48.361Z,99530.03
2022-12-31T03:50:49.951Z,99502.47
2022-12-31T03:55:52.431Z,99521.91
2022-12-31T04:00:53.852Z,99521.56
2022-12-31T04:05:55.365Z,99523.19
2022-12-31T04:10:56.774Z,99521.53
2022-12-31T04:15:58.183Z,99522.59
2022-12-31T04:21:03.358Z,99519.13
2022-12-31T04:26:04.805Z,99530.94
2022-12-31T04:31:06.193Z,99520.84
2022-12-31T04:36:08.015Z,99509.59
2022-12-31T04:41:18.422Z,99508.69
2022-12-31T04:46:24.536Z,99495.03
2022-12-31T04:51:26.314Z,99496.09
2022-12-31T04:56:27.838Z,99504.31
2022-12-31T05:01:29.312Z,99513.88
2022-12-31T05:06:30.808Z,99503.06
2022-12-31T05:11:32.237Z,99500.31
2022-12-31T05:16:33.650Z,99490.47
2022-12-31T05:21:35.287Z,99488.25
2022-12-31T05:26:36.669Z,99488.75
2022-12-31T05:31:38.072Z,99487.69
2022-12-31T05:36:39.506Z,99482.22
2022-12-31T05:41:40.936Z,99496.44
2022-12-31T05:46:42.315Z,99482.59
2022-12-31T05:51:43.686Z,99501.72
2022-12-31T05:56:45.063Z,99518.59
2022-12-31T06:01:46.450Z,99518.34
2022-12-31T06:06:47.870Z,99542.88
2022-12-31T06:11:49.344Z,99544.75
2022-12-31T06:16:50.721Z,99535.19
2022-12-31T06:21:52.103Z,99528.66
2022-12-31T06:26:53.512Z,99529.22
2022-12-31T06:31:54.912Z,99535.00
2022-12-31T06:36:56.327Z,99535.81
2022-12-31T06:41:57.758Z,99519.16
2022-12-31T06:46:59.159Z,99525.97
2022-12-31T06:52:00.584Z,99518.00
2022-12-31T06:57:02.231Z,99533.28
2022-12-31T07:02:36.570Z,99551.00
2022-12-31T07:07:59.726Z,99565.22
2022-12-31T07:13:21.652Z,99562.53
2022-12-31T07:18:51.854Z,99577.03
2022-12-31T07:23:53.501Z,99571.06
2022-12-31T07:29:02.591Z,99558.75
2022-12-31T07:34:30.066Z,99553.78
2022-12-31T07:39:40.409Z,99569.09
2022-12-31T07:44:48.150Z,99554.56
2022-12-31T07:49:49.693Z,99566.88
2022-12-31T07:54:51.066Z,99552.44
2022-12-31T07:59:52.326Z,99541.84
2022-12-31T08:04:58.216Z,99554.69
2022-12-31T08:10:38.896Z,99575.97
2022-12-31T08:15:40.647Z,99558.75
2022-12-31T08:21:26.125Z,99565.28
2022-12-31T08:26:54.169Z,99572.63
2022-12-31T08:32:34.261Z,99575.06
2022-12-31T08:37:57.822Z,99586.00
2022-12-31T08:43:20.967Z,99586.22
2022-12-31T08:48:42.164Z,99589.56
2022-12-31T08:53:43.692Z,99587.63
2022-12-31T08:59:22.205Z,99593.19
2022-12-31T09:05:00.973Z,99584.50
2022-12-31T09:10:19.056Z,99610.13
2022-12-31T09:15:43.631Z,99620.22
2022-12-31T09:20:45.240Z,99624.03
2022-12-31T09:26:05.715Z,99626.47
2022-12-31T09:31:31.138Z,99640.69
2022-12-31T09:36:35.250Z,99647.72
2022-12-31T09:42:05.605Z,99652.09
2022-12-31T09:47:41.754Z,99652.94
2022-12-31T09:52:43.006Z,99651.28
2022-12-31T09:58:15.253Z,99627.53
2022-12-31T10:03:33.882Z,99637.38
2022-12-31T10:08:38.884Z,99634.66
2022-12-31T10:13:42.593Z,99638.44
2022-12-31T10:19:12.210Z,99643.09
2022-12-31T10:24:31.466Z,99664.69
2022-12-31T10:29:47.146Z,99652.09
2022-12-31T10:35:13.411Z,99660.56
2022-12-31T10:40:44.956Z,99627.78
2022-12-31T10:46:25.765Z,99655.91
2022-12-31T10:51:49.992Z,99654.28
2022-12-31T10:57:28.826Z,99663.59
2022-12-31T11:03:19.994Z,99656.75
2022-12-31T11:09:02.339Z,99647.72
2022-12-31T11:14:14.074Z,99650.44
2022-12-31T11:19:31.765Z,99655.91
2022-12-31T11:25:01.588Z,99638.72
2022-12-31T11:30:45.656Z,99649.38
2022-12-31T11:36:13.863Z,99634.66
2022-12-31T11:41:35.897Z,99631.59
2022-12-31T11:46:47.347Z,99650.94
2022-12-31T11:52:07.854Z,99657.25
2022-12-31T11:57:09.154Z,99658.41
2022-12-31T12:02:26.903Z,99655.09
2022-12-31T12:07:29.136Z,99651.53
2022-12-31T12:12:40.691Z,99659.97
2022-12-31T12:17:42.075Z,99669.81
2022-12-31T12:22:50.976Z,99645.47
2022-12-31T12:27:52.465Z,99639.22
2022-12-31T12:32:59.446Z,99656.41
2022-12-31T12:38:01.533Z,99658.06
2022-12-31T12:43:03.105Z,99659.72
2022-12-31T12:48:08.722Z,99644.97
2022-12-31T12:53:19.815Z,99654.84
2022-12-31T12:58:37.207Z,99648.31
2022-12-31T13:04:23.363Z,99648.53
2022-12-31T13:09:47.950Z,99640.84
2022-12-31T13:15:18.812Z,99653.44
2022-12-31T13:20:25.315Z,99658.41
2022-12-31T13:25:45.162Z,99666.81
2022-12-31T13:30:48.721Z,99677.75
2022-12-31T13:35:52.493Z,99647.47
2022-12-31T13:40:58.378Z,99671.72
2022-12-31T13:46:26.316Z,99663.53
2022-12-31T13:51:37.350Z,99678.84
2022-12-31T13:56:38.829Z,99696.63
2022-12-31T14:01:48.784Z,99710.78
2022-12-31T14:07:07.213Z,99693.34
2022-12-31T14:12:23.835Z,99704.75
2022-12-31T14:17:43.514Z,99688.38
2022-12-31T14:23:03.410Z,99691.41
2022-12-31T14:28:04.780Z,99714.03
2022-12-31T14:33:18.252Z,99724.13
2022-12-31T14:38:39.528Z,99755.22
2022-12-31T14:43:56.879Z,99757.38
2022-12-31T14:49:05.782Z,99764.16
2022-12-31T14:54:49.006Z,99756.53
2022-12-31T14:59:55.617Z,99759.03
2022-12-31T15:05:14.552Z,99763.34
2022-12-31T15:10:27.434Z,99767.16
2022-12-31T15:15:56.763Z,99758.34
2022-12-31T15:21:20.927Z,99810.31
2022-12-31T15:26:31.340Z,99796.56
2022-12-31T15:31:33.589Z,99785.06
2022-12-31T15:36:41.336Z,99804.75
2022-12-31T15:47:36.074Z,99806.66
2022-12-31T15:52:54.215Z,99803.13
2022-12-31T15:57:58.155Z,99792.56
2022-12-31T16:02:59.595Z,99798.16
2022-12-31T16:08:01.053Z,99806.81
2022-12-31T16:13:02.485Z,99806.56
2022-12-31T16:18:10.494Z,99806.56
2022-12-31T16:23:20.211Z,99809.56
2022-12-31T16:28:24.483Z,99800.53
2022-12-31T16:33:25.883Z,99826.78
2022-12-31T16:38:36.770Z,99823.69
2022-12-31T16:43:39.385Z,99825.94
2022-12-31T16:48:44.721Z,99835.19
2022-12-31T16:53:47.005Z,99843.97
2022-12-31T16:58:48.382Z,99848.34
2022-12-31T17:03:55.432Z,99838.97
2022-12-31T17:08:57.843Z,99851.50
2022-12-31T17:14:05.229Z,99854.22
2022-12-31T17:19:06.619Z,99847.16
2022-12-31T17:24:07.993Z,99846.03
2022-12-31T17:29:22.743Z,99839.25
2022-12-31T17:34:37.967Z,99851.66
2022-12-31T17:39:49.871Z,99868.19
2022-12-31T17:44:53.948Z,99857.34
2022-12-31T17:49:55.356Z,99865.91
2022-12-31T17:54:56.758Z,99878.97
2022-12-31T17:59:58.165Z,99874.59
2022-12-31T18:04:59.544Z,99889.31
2022-12-31T18:10:00.912Z,99882.19
2022-12-31T18:15:02.334Z,99902.03
2022-12-31T18:20:05.168Z,99894.44
2022-12-31T18:25:07.697Z,99893.00
2022-12-31T18:30:10.358Z,99893.28
2022-12-31T18:35:33.367Z,99882.34
2022-12-31T18:40:42.472Z,99871.91
2022-12-31T18:45:44.025Z,99884.00
2022-12-31T18:50:45.610Z,99872.84
2022-12-31T18:55:49.019Z,99880.28
2022-12-31T19:00:50.628Z,99868.66
2022-12-31T19:05:52.120Z,99865.91
2022-12-31T19:10:53.625Z,99860.94
2022-12-31T19:15:55.473Z,99854.31
2022-12-31T19:20:56.877Z,99857.53
2022-12-31T19:25:58.284Z,99851.97
2022-12-31T19:30:59.657Z,99847.00
2022-12-31T19:36:01.134Z,99844.34
2022-12-31T19:41:02.699Z,99842.06
2022-12-31T19:46:04.258Z,99841.00
2022-12-31T19:51:11.922Z,99836.03
2022-12-31T19:56:17.856Z,99840.31
2022-12-31T20:01:20.814Z,99839.72
2022-12-31T20:06:22.523Z,99837.56
2022-12-31T20:11:24.026Z,99836.16
2022-12-31T20:16:29.657Z,99833.91
2022-12-31T20:21:31.029Z,99824.59
2022-12-31T20:26:32.397Z,99821.94
2022-12-31T20:31:33.787Z,99827.00
2022-12-31T20:36:35.163Z,99831.97
2022-12-31T20:41:36.596Z,99824.63
2022-12-31T20:46:38.028Z,99815.09
2022-12-31T20:51:39.424Z,99806.81
2022-12-31T20:56:40.933Z,99805.91
2022-12-31T21:02:19.536Z,99816.34
2022-12-31T21:07:03.708Z,99790.81
2022-12-31T21:12:23.953Z,99777.28
2022-12-31T21:17:25.370Z,99774.44
2022-12-31T21:22:26.801Z,99780.50
2022-12-31T21:27:28.992Z,99770.91
2022-12-31T21:32:31.440Z,99755.59
2022-12-31T21:37:58.923Z,99774.69
2022-12-31T21:42:54.156Z,99784.78
2022-12-31T21:48:17.288Z,99789.19
2022-12-31T21:53:24.126Z,99799.00
2022-12-31T21:58:28.456Z,99813.75
2022-12-31T22:03:31.559Z,99818.13
2022-12-31T22:08:33.105Z,99833.09
2022-12-31T22:13:34.543Z,99841.53
2022-12-31T22:18:38.799Z,99850.56
2022-12-31T22:23:40.558Z,99857.91
2022-12-31T22:28:42.383Z,99866.94
2022-12-31T22:33:43.876Z,99882.13
2022-12-31T22:38:45.538Z,99884.16
2022-12-31T22:43:48.948Z,99888.53
2022-12-31T22:48:51.003Z,99883.31
2022-12-31T22:53:52.414Z,99899.09
2022-12-31T22:58:53.799Z,99908.94
2022-12-31T23:03:55.239Z,99911.78
2022-12-31T23:09:15.329Z,99916.41
2022-12-31T23:14:35.569Z,99926.84
2022-12-31T23:19:55.384Z,99932.06
2022-12-31T23:24:56.765Z,99939.69
2022-12-31T23:29:58.150Z,99944.31
2022-12-31T23:35:02.212Z,99938.00
2022-12-31T23:40:06.735Z,99937.66
2022-12-31T23:45:08.168Z,99933.88
2022-12-31T23:50:09.580Z,99937.44
2022-12-31T23:55:11.377Z,99951.31
